Airfield :
LOGIN :

Register | Disclaimer

   EN    FR    IT 

 










Legend :    VFR   Marginal VFR   IFR   Intensive IFR   Very Intensive IFR
Visi :
Ceiling :
>= 8 km
>= 3000ft
5 to 8 km
1000 to 3000 ft
1500m to 5 km
500 to 1000 ft
800 to 1500m
200 to 500 ft
< 800m
< 200 ft
Symbols :   Thunderstorms  Fog  Heavy snow  Heavy precipitations  Wind > 20 kt
SIGMETs :     Misc.  Thunderstorms  Icing  Turbulence  Mountain Waves  Volcanic Ashes







- Airport Elevation : 375 ft
- IATA code : MST


EHBK - Maastricht Aachen

CURRENT METAR :
  • 130355Z AUTO 20013KT 9999 NSC 10/08 Q1019

EXPIRED METARs :
  • 130325Z AUTO 20013KT 9999 NSC 10/08 Q1019
  • 130255Z AUTO 20012KT 9999 SCT038 10/08 Q1019
  • 130225Z AUTO 20012KT 9999 NSC 10/08 Q1019
  • 130155Z AUTO 19011KT 9999 NSC 10/08 Q1019
  • 130125Z AUTO 19009KT 160V220 9999 SCT045 09/08 Q1019

TAF TAF EHBK
Valid from the 13 at 00:00 until the 14 at 06:00 UTC


122315Z 1300/1406 18008KT 9999 BKN030
PROB30
TEMPO 1300/1304 7000 -DZRA BKN012
BECMG 1303/1306 21012KT
PROB30 1305/1309 BKN012
TEMPO 1308/1315 23015G25KT
PROB30
TEMPO 1309/1312 7000 SHRA FEW020CB BKN030
BECMG 1402/1405 18006KT
No reported NOTAMs for that airfield.



MET'MAP, your aeronautical weather chart ! - Copyright ORBIFLY December 2007 - Disclaimer

ORBIFLY MET'MAP TEAM :

Programming & Development : Alexandra Zaïnal
Concept & Development : Baudouin d'Aumeries
Co-Development & Prog : Marc-Olivier Méhu
Technical & hardware support : Manuel Goepfert

Contact : metmap@orbifly.com




SOURCES & CREDITS :

   NOAA